Flight Track Log - Related Links

Times and Time Zones

All times are in EDT time to prevent confusion due to time zone crossing. See the F-HPJG flight status page for this flight to view local times or setup timezone preferences in your user account.

Time Position Orientation Groundspeed Altitude Reporting Facility
EDT Latitude Longitude Course Direction KTS MPH feet Rate Location/Type
Tue 08:01:25 AM 49.0210 2.5750 33° Northeast 18 21  Level FlightAware ADS-B
Tue 08:02:00 AM 49.1243 2.6609 33° Northeast  Level Estimated
Tue 08:02:10 AM 49.0210 2.5700 270° West 14 16  Level FlightAware ADS-B
Tue 08:02:46 AM 49.0200 2.5670 243° Southwest 7 8 12 Level FlightAware ADS-B
Tue 08:03:20 AM 49.0210 2.5660 327° Northwest 3 3 13 Level FlightAware ADS-B
Tue 08:04:16 AM 49.0220 2.5660 360° North 2 2 14 Level FlightAware ADS-B
Tue 08:06:00 AM 49.2152 2.7587 33° Northeast  Level Estimated
Tue 08:07:00 AM 49.3266 2.8705 33° Northeast  Level Estimated
Tue 08:07:57 AM 49.0230 2.5660 33° Northeast 8 9  Level FlightAware ADS-B
Tue 08:08:00 AM 49.4378 2.9828 33° Northeast  Level Estimated
Tue 08:08:12 AM 49.0230 2.5650 270° West 5 6  Level FlightAware ADS-B
Tue 08:08:42 AM 49.0230 2.5640 270° West 1 1 44 Level FlightAware ADS-B
Tue 08:09:52 AM 49.0230 2.5620 270° West 53 61 57 Level FlightAware ADS-B
Tue 08:10:06 AM 49.0230 2.5540 270° West 88 101 167 Level FlightAware ADS-B
Tue 08:10:28 AM 49.0220 2.5300 266° West 88 101 100 857 Climbing FlightAware ADS-B
Tue 08:10:48 AM 49.0200 2.5050 263° West 161 185 600 1,600 Climbing FlightAware ADS-B
Tue 08:10:58 AM 49.0190 2.4930 263° West 161 185 900 1,000 Climbing FlightAware ADS-B
Tue 08:11:18 AM 49.0190 2.4820 270° West 162 186 1,100 1,424 Climbing FlightAware ADS-B
Tue 08:11:57 AM 49.0160 2.4280 265° West 166 191 2,300 1,754 Climbing FlightAware ADS-B
Tue 08:12:23 AM 49.0290 2.4030 308° West 163 188 3,000 1,179 Climbing FlightAware ADS-B
Tue 08:12:53 AM 49.0490 2.3830 327° Northwest 191 220 3,400 931 Climbing FlightAware ADS-B
Tue 08:13:21 AM 49.0730 2.3620 330° Northwest 227 261 3,900 1,038 Climbing FlightAware ADS-B
Tue 08:13:45 AM 49.0950 2.3410 328° Northwest 255 293 4,300 1,889 Climbing FlightAware ADS-B
Tue 08:14:15 AM 49.1260 2.3120 329° Northwest 258 297 5,600 2,714 Climbing FlightAware ADS-B
Tue 08:14:27 AM 49.1390 2.3030 336° Northwest 257 296 6,200 1,895 Climbing FlightAware ADS-B
Tue 08:14:53 AM 49.1620 2.3060 North 259 298 6,800 2,143 Climbing FlightAware ADS-B
Tue 08:15:23 AM 49.1970 2.3280 22° Northeast 266 306 8,200 2,897 Climbing FlightAware ADS-B
Tue 08:15:51 AM 49.2350 2.3540 24° Northeast 270 311 9,600 2,526 Climbing FlightAware ADS-B
Tue 08:16:01 AM 49.2420 2.3600 29° Northeast 271 312 9,800 1,607 Climbing FlightAware ADS-B
Tue 08:16:47 AM 49.3020 2.4020 25° Northeast 306 352 11,100 1,295 Climbing FlightAware ADS-B
Tue 08:17:29 AM 49.3620 2.4410 23° Northeast 353 406 11,700 1,037 Climbing FlightAware ADS-B
Tue 08:18:08 AM 49.4230 2.4820 24° Northeast 382 440 12,500 1,744 Climbing FlightAware ADS-B
Tue 08:18:55 AM 49.5020 2.5330 23° Northeast 395 455 14,200 2,188 Climbing FlightAware ADS-B
Tue 08:19:33 AM 49.5650 2.5750 23° Northeast 404 465 15,600 2,195 Climbing FlightAware ADS-B
Tue 08:20:17 AM 49.6400 2.6250 23° Northeast 410 472 17,200 2,000 Climbing FlightAware ADS-B
Tue 08:21:15 AM 49.7430 2.6960 24° Northeast 423 487 19,000 1,941 Climbing FlightAware ADS-B
Tue 08:21:59 AM 49.8220 2.7560 26° Northeast 431 496 20,500 1,857 Climbing FlightAware ADS-B
Tue 08:22:39 AM 49.8930 2.8140 28° Northeast 439 505 21,600 1,643 Climbing FlightAware ADS-B
Tue 08:23:23 AM 49.9730 2.8770 27° Northeast 445 512 22,800 1,683 Climbing FlightAware ADS-B
Tue 08:24:01 AM 50.0410 2.9310 27° Northeast 450 518 23,900 1,583 Climbing FlightAware ADS-B
Tue 08:24:35 AM 50.1060 2.9830 27° Northeast 455 524 24,700 1,479 Climbing FlightAware ADS-B
Tue 08:25:14 AM 50.1810 3.0380 25° Northeast 459 528 25,700 1,378 Climbing FlightAware ADS-B
Tue 08:25:49 AM 50.2512 3.0889 25° Northeast 482 555 26,400 1,227 Climbing FlightAware UK
Tue 08:25:58 AM 50.2670 3.0990 25° Northeast 466 536 26,600 1,364 Climbing FlightAware ADS-B
Tue 08:26:33 AM 50.3260 3.1430 25° Northeast 467 537 27,400 1,247 Climbing FlightAware ADS-B
Tue 08:27:15 AM 50.4150 3.2080 25° Northeast 476 548 28,200 1,172 Climbing FlightAware ADS-B
Tue 08:28:00 AM 50.5060 3.2750 25° Northeast 478 550 29,100 1,390 Climbing FlightAware ADS-B
Tue 08:28:37 AM 50.5840 3.3333 25° Northeast 492 566 30,100 1,650 Climbing FlightAware UK
Tue 08:28:40 AM 50.5860 3.3340 25° Northeast 468 539 30,200 1,143 Climbing FlightAware ADS-B
Tue 08:29:19 AM 50.6680 3.3960 25° Northeast 488 562 30,900 1,067 Climbing FlightAware UK
Tue 08:29:25 AM 50.6760 3.4010 25° Northeast 478 550 31,000 1,043 Climbing FlightAware ADS-B
Tue 08:30:05 AM 50.7550 3.4600 25° Northeast 480 552 31,700 1,059 Climbing FlightAware ADS-B
Tue 08:30:50 AM 50.8460 3.5290 26° Northeast 481 554 32,500 918 Climbing FlightAware ADS-B
Tue 08:31:30 AM 50.9260 3.5890 25° Northeast 479 551 33,000 847 Climbing FlightAware ADS-B
Tue 08:32:15 AM 51.0170 3.6570 25° Northeast 479 551 33,700 847 Climbing FlightAware ADS-B
Tue 08:32:55 AM 51.0990 3.7190 25° Northeast 483 556 34,200 776 Climbing FlightAware ADS-B
Tue 08:33:40 AM 51.1920 3.7900 26° Northeast 485 558 34,800 565 Climbing FlightAware ADS-B
Tue 08:34:20 AM 51.2730 3.8520 26° Northeast 485 558 35,000 150 Climbing FlightAware ADS-B
Tue 08:35:00 AM 51.3550 3.9160 26° Northeast 492 566 35,000  Level FlightAware ADS-B
Tue 08:35:40 AM 51.4270 4.0030 37° Northeast 487 560 35,000  Level FlightAware ADS-B
Tue 08:36:20 AM 51.4960 4.0930 39° Northeast 493 567 35,000  Level FlightAware ADS-B
Tue 08:37:01 AM 51.5748 4.1940 39° Northeast 492 566 35,000  Level FlightAware UK
Tue 08:37:05 AM 51.5750 4.1960 39° Northeast 487 560 35,000  Level FlightAware ADS-B
Tue 08:37:37 AM 51.6384 4.2772 39° Northeast 490 564 35,000  Level FlightAware UK
Tue 08:37:45 AM 51.6450 4.2890 39° Northeast 487 560 35,000  Level FlightAware ADS-B
Tue 08:38:19 AM 51.7122 4.3746 39° Northeast 492 566 35,000  Level FlightAware UK
Tue 08:38:25 AM 51.7110 4.3760 39° Northeast 486 559 35,000  Level FlightAware ADS-B
Tue 08:38:55 AM 51.7758 4.4587 39° Northeast 490 564 35,000  Level FlightAware UK
Tue 08:39:14 AM 51.8080 4.5030 39° Northeast 493 567 35,000  Level FlightAware ADS-B
Tue 08:39:54 AM 51.8760 4.5950 39° Northeast 495 570 35,000  Level FlightAware ADS-B
Tue 08:39:56 AM 51.8815 4.5998 39° Northeast 488 562 35,000  Level FlightAware UK
Tue 08:40:26 AM 51.9341 4.6703 39° Northeast 490 564 35,000  Level FlightAware UK
Tue 08:40:34 AM 51.9480 4.6920 39° Northeast 497 572 35,000  Level FlightAware ADS-B
Tue 08:41:23 AM 52.0340 4.8070 39° Northeast 500 575 35,000  Level FlightAware ADS-B
Tue 08:42:01 AM 52.1020 4.8990 40° Northeast 502 578 35,000  Level FlightAware ADS-B
Tue 08:42:45 AM 52.1800 5.0050 40° Northeast 504 580 35,000  Level FlightAware ADS-B
Tue 08:43:26 AM 52.2540 5.1050 40° Northeast 502 578 35,000  Level FlightAware ADS-B
Tue 08:44:08 AM 52.3290 5.2070 40° Northeast 501 577 35,000  Level FlightAware ADS-B
Tue 08:44:52 AM 52.4060 5.3140 40° Northeast 504 580 35,000  Level FlightAware ADS-B
Tue 08:45:30 AM 52.4740 5.4090 40° Northeast 505 581 35,000  Level FlightAware ADS-B
Tue 08:45:32 AM 52.4744 5.4097 40° Northeast 490 564 35,000  Level FlightAware UK
Tue 08:46:02 AM 52.5225 5.4981 40° Northeast 490 564 35,000  Level FlightAware UK
Tue 08:46:08 AM 52.5320 5.5130 40° Northeast 508 585 35,000 462 Level FlightAware ADS-B
Tue 08:46:54 AM 52.6050 5.6420 47° Northeast 506 582 35,400 643 Climbing FlightAware ADS-B
Tue 08:47:32 AM 52.6696 5.7519 47° Northeast 494 568 35,900 857 Climbing FlightAware UK
Tue 08:47:36 AM 52.6700 5.7560 47° Northeast 505 581 36,000 120 Climbing FlightAware ADS-B
Tue 08:48:22 AM 52.7450 5.8900 47° Northeast 507 583 36,000  Level FlightAware ADS-B
Tue 08:49:01 AM 52.8080 6.0020 47° Northeast 505 581 36,000  Level FlightAware ADS-B
Tue 08:49:36 AM 52.8630 6.0990 47° Northeast 505 581 36,000  Level FlightAware ADS-B
Tue 08:50:22 AM 52.9360 6.2310 47° Northeast 506 582 36,000  Level FlightAware ADS-B
Tue 08:50:26 AM 52.9455 6.2467 47° Northeast 1 1 36,000  Level FlightAware UK
Tue 08:51:06 AM 53.0030 6.3530 48° Northeast 506 582 36,000  Level FlightAware ADS-B
Tue 08:51:51 AM 53.0730 6.4800 47° Northeast 505 581 36,000  Level FlightAware ADS-B
Tue 08:52:31 AM 53.1380 6.5990 48° Northeast 505 581 36,000  Level FlightAware ADS-B
Tue 08:53:27 AM 53.2240 6.7560 48° Northeast 507 583 36,000  Level FlightAware ADS-B
Tue 08:54:05 AM 53.2860 6.8710 48° Northeast 508 585 36,000  Level FlightAware ADS-B
Tue 08:54:44 AM 53.3505 6.9907 48° Northeast 1 1 36,000  Level FlightAware UK
Tue 08:54:50 AM 53.3580 7.0050 48° Northeast 509 586 36,000  Level FlightAware ADS-B
Tue 08:55:31 AM 53.4210 7.1220 48° Northeast 509 586 36,000  Level FlightAware ADS-B
Tue 08:56:16 AM 53.4910 7.2540 48° Northeast 510 587 36,000  Level FlightAware ADS-B
Tue 08:57:00 AM 53.5590 7.3820 48° Northeast 511 588 36,000  Level FlightAware ADS-B
Tue 08:57:35 AM 53.6190 7.4930 48° Northeast 506 582 36,000  Level FlightAware ADS-B
Tue 08:58:21 AM 53.6890 7.6240 48° Northeast 507 583 36,000  Level FlightAware ADS-B
Tue 08:59:01 AM 53.7510 7.7390 48° Northeast 505 581 36,000  Level FlightAware ADS-B
Tue 08:59:46 AM 53.8250 7.8740 47° Northeast 504 580 36,000  Level FlightAware ADS-B
Tue 09:00:25 AM 53.8880 7.9880 47° Northeast 506 582 36,000  Level FlightAware ADS-B
Tue 09:01:06 AM 53.9550 8.1120 47° Northeast 510 587 36,000  Level FlightAware ADS-B
Tue 09:01:52 AM 54.0190 8.2540 52° Northeast 513 590 36,000  Level FlightAware ADS-B
Tue 09:02:32 AM 54.0820 8.3750 48° Northeast 513 590 36,000  Level FlightAware ADS-B
Tue 09:03:26 AM 54.1660 8.5390 49° Northeast 514 592 36,000  Level FlightAware ADS-B
Tue 09:04:06 AM 54.2290 8.6610 49° Northeast 512 589 36,000  Level FlightAware ADS-B
Tue 09:04:51 AM 54.2990 8.7970 49° Northeast 512 589 36,000  Level FlightAware ADS-B
Tue 09:05:36 AM 54.3700 8.9330 48° Northeast 511 588 36,000  Level FlightAware ADS-B
Tue 09:06:17 AM 54.4340 9.0530 47° Northeast 506 582 36,000  Level FlightAware ADS-B
Tue 09:07:01 AM 54.5030 9.1910 49° Northeast 509 586 36,000  Level FlightAware ADS-B
Tue 09:07:36 AM 54.5550 9.3010 51° Northeast 510 587 36,000  Level FlightAware ADS-B
Tue 09:08:26 AM 54.6300 9.4550 50° Northeast 506 582 36,000  Level FlightAware ADS-B
Tue 09:09:07 AM 54.6930 9.5870 50° Northeast 511 588 36,000  Level FlightAware ADS-B
Tue 09:09:41 AM 54.7450 9.6940 50° Northeast 511 588 36,000  Level FlightAware ADS-B
Tue 09:11:00 AM 54.8410 9.8960 50° Northeast 512 589 36,000  Level FlightAware ADS-B
Tue 09:11:39 AM 54.8920 10.0010 50° Northeast 512 589 36,000  Level FlightAware ADS-B
Tue 09:12:26 AM 54.9730 10.1750 51° Northeast 513 590 36,000  Level FlightAware ADS-B
Tue 09:13:08 AM 55.0540 10.3480 51° Northeast 511 588 36,000  Level FlightAware ADS-B
Tue 09:13:49 AM 55.1140 10.4770 51° Northeast 511 588 36,000  Level FlightAware ADS-B
Tue 09:14:36 AM 55.1810 10.6220 51° Northeast 509 586 36,000  Level FlightAware ADS-B
Tue 09:15:18 AM 55.2460 10.7640 51° Northeast 509 586 36,000  Level FlightAware ADS-B
Tue 09:16:29 AM 55.3490 10.9880 51° Northeast 511 588 36,000  Level FlightAware ADS-B
Tue 09:17:13 AM 55.4130 11.1310 52° Northeast 511 588 36,000  Level FlightAware ADS-B
Tue 09:17:53 AM 55.4750 11.2680 51° Northeast 507 583 36,000  Level FlightAware ADS-B
Tue 09:18:33 AM 55.5330 11.3980 52° Northeast 504 580 36,000  Level FlightAware ADS-B
Tue 09:19:17 AM 55.5960 11.5380 51° Northeast 505 581 36,000  Level FlightAware ADS-B
Tue 09:20:01 AM 55.6590 11.6810 52° Northeast 507 583 36,000  Level FlightAware ADS-B
Tue 09:20:55 AM 55.7230 11.8270 52° Northeast 508 585 36,000  Level FlightAware ADS-B
Tue 09:21:31 AM 55.7890 11.9780 52° Northeast 508 585 36,000  Level FlightAware ADS-B
Tue 09:22:14 AM 55.8490 12.1140 52° Northeast 508 585 36,000  Level FlightAware ADS-B
Tue 09:23:03 AM 55.9200 12.2800 53° Northeast 510 587 36,000  Level FlightAware ADS-B
Tue 09:23:41 AM 55.9740 12.4040 52° Northeast 512 589 36,000  Level FlightAware ADS-B
Tue 09:24:25 AM 56.0390 12.5580 53° Northeast 511 588 36,000 68 Level FlightAware ADS-B
Tue 09:25:09 AM 56.1020 12.7040 52° Northeast 515 593 36,100 385 Climbing FlightAware ADS-B
Tue 09:25:43 AM 56.1510 12.8210 53° Northeast 515 593 36,500 635 Climbing FlightAware ADS-B
Tue 09:26:34 AM 56.2230 12.9920 53° Northeast 517 595 37,000 337 Climbing FlightAware ADS-B
Tue 09:27:12 AM 56.2770 13.1230 53° Northeast 519 597 37,000  Level FlightAware ADS-B
Tue 09:27:54 AM 56.3370 13.2660 53° Northeast 516 594 37,000  Level FlightAware ADS-B
Tue 09:28:39 AM 56.3990 13.4170 53° Northeast 516 594 37,000  Level FlightAware ADS-B
Tue 09:29:18 AM 56.4550 13.5540 53° Northeast 517 595 37,000  Level FlightAware ADS-B
Tue 09:29:54 AM 56.5070 13.6820 54° Northeast 518 596 37,000  Level FlightAware ADS-B
Tue 09:31:22 AM 56.6110 13.9380 53° Northeast 515 593 37,000  Level FlightAware ADS-B
Tue 09:32:20 AM 56.6920 14.1390 54° Northeast 517 595 37,000  Level FlightAware ADS-B
Tue 09:33:03 AM 56.7710 14.3390 54° Northeast 519 597 37,000  Level FlightAware ADS-B
Tue 09:33:47 AM 56.8320 14.4940 54° Northeast 521 600 37,000  Level FlightAware ADS-B
Tue 09:34:29 AM 56.8920 14.6460 54° Northeast 521 600 37,000  Level FlightAware ADS-B
Tue 09:35:11 AM 56.9500 14.7960 55° Northeast 522 601 37,000  Level FlightAware ADS-B
Tue 09:35:46 AM 56.9970 14.9160 54° Northeast 523 602 37,000  Level FlightAware ADS-B
Tue 09:36:56 AM 57.0980 15.1790 55° Northeast 523 602 37,000  Level FlightAware ADS-B
Tue 09:37:53 AM 57.1770 15.3870 55° Northeast 519 597 37,000  Level FlightAware ADS-B
Tue 09:38:33 AM 57.2330 15.5340 55° Northeast 520 598 37,000  Level FlightAware ADS-B
Tue 09:39:17 AM 57.2930 15.6940 55° Northeast 520 598 37,000  Level FlightAware ADS-B
Tue 09:39:53 AM 57.3410 15.8240 56° Northeast 522 601 37,000  Level FlightAware ADS-B
Tue 09:40:50 AM 57.4070 16.0020 55° Northeast 520 598 37,000  Level FlightAware ADS-B
Tue 09:41:32 AM 57.4750 16.1850 55° Northeast 520 598 37,000  Level FlightAware ADS-B
Tue 09:42:18 AM 57.5360 16.3540 56° Northeast 520 598 37,000  Level FlightAware ADS-B
Tue 09:42:58 AM 57.5890 16.5000 56° Northeast 522 601 37,000  Level FlightAware ADS-B
Tue 09:43:42 AM 57.6500 16.6680 56° Northeast 524 603 37,000  Level FlightAware ADS-B
Tue 09:44:26 AM 57.7090 16.8330 56° Northeast 525 604 37,000  Level FlightAware ADS-B
Tue 09:44:58 AM 57.7500 16.9490 56° Northeast 523 602 37,000  Level FlightAware ADS-B
Tue 09:45:28 AM 57.7900 17.0610 56° Northeast 523 602 37,000  Level FlightAware ADS-B
Tue 09:46:57 AM 57.8950 17.3600 56° Northeast 520 598 37,000  Level FlightAware ADS-B
Tue 09:47:35 AM 57.9600 17.5480 57° Northeast 521 600 37,000  Level FlightAware ADS-B
Tue 09:48:15 AM 58.0130 17.7000 57° Northeast 522 601 37,000  Level FlightAware ADS-B
Tue 09:48:59 AM 58.0710 17.8690 57° Northeast 522 601 37,000  Level FlightAware ADS-B
Tue 09:49:39 AM 58.1200 18.0130 57° Northeast 522 601 37,000  Level FlightAware ADS-B
Tue 09:50:34 AM 58.1830 18.2000 57° Northeast 522 601 37,000  Level FlightAware ADS-B
Tue 09:51:05 AM 58.2340 18.3520 57° Northeast 523 602 37,000  Level FlightAware ADS-B
Tue 09:51:56 AM 58.3010 18.5520 57° Northeast 524 603 37,000  Level FlightAware ADS-B
Tue 09:52:36 AM 58.3520 18.7050 58° Northeast 523 602 37,000  Level FlightAware ADS-B
Tue 09:53:18 AM 58.4050 18.8680 58° Northeast 525 604 37,000  Level FlightAware ADS-B
Tue 09:54:00 AM 58.4600 19.0350 58° Northeast 526 605 37,000  Level FlightAware ADS-B
Tue 09:54:36 AM 58.5050 19.1760 59° Northeast 526 605 37,000  Level FlightAware ADS-B
Tue 09:55:04 AM 58.5410 19.2860 58° Northeast 526 605 37,000  Level FlightAware ADS-B
Tue 09:55:57 AM 58.6020 19.4770 58° Northeast 522 601 37,000  Level FlightAware ADS-B
Tue 09:56:34 AM 58.6540 19.6410 59° Northeast 523 602 37,000  Level FlightAware ADS-B
Tue 09:57:12 AM 58.7020 19.7910 58° Northeast 522 601 37,000  Level FlightAware ADS-B
Tue 09:57:56 AM 58.7560 19.9640 59° Northeast 521 600 37,000  Level FlightAware ADS-B
Tue 09:58:40 AM 58.8100 20.1390 59° Northeast 520 598 37,000  Level FlightAware ADS-B
Tue 09:59:22 AM 58.8620 20.3060 59° Northeast 521 600 37,000  Level FlightAware ADS-B
Tue 10:00:10 AM 58.9170 20.4840 59° Northeast 520 598 37,000  Level FlightAware ADS-B
Tue 10:01:14 AM 58.9980 20.7520 60° Northeast 520 598 37,000  Level FlightAware ADS-B
Tue 10:02:22 AM 59.0890 21.0150 56° Northeast 525 604 37,000  Level FlightAware ADS-B
Tue 10:03:05 AM 59.1570 21.1740 50° Northeast 526 605 37,000  Level FlightAware ADS-B
Tue 10:03:41 AM 59.2130 21.3060 50° Northeast 523 602 37,000  Level FlightAware ADS-B
Tue 10:04:29 AM 59.2860 21.4810 51° Northeast 520 598 37,000  Level FlightAware ADS-B
Tue 10:05:09 AM 59.3470 21.6260 50° Northeast 521 600 37,000  Level FlightAware ADS-B
Tue 10:05:50 AM 59.3910 21.7320 51° Northeast 522 601 37,000  Level FlightAware ADS-B
Tue 10:06:28 AM 59.4660 21.9160 51° Northeast 522 601 37,000  Level FlightAware ADS-B
Tue 10:07:09 AM 59.5280 22.0670 51° Northeast 524 603 37,000  Level FlightAware ADS-B
Tue 10:07:54 AM 59.5960 22.2340 51° Northeast 523 602 37,000  Level FlightAware ADS-B
Tue 10:08:34 AM 59.6560 22.3840 52° Northeast 522 601 37,000  Level FlightAware ADS-B
Tue 10:09:14 AM 59.7150 22.5300 51° Northeast 522 601 37,000  Level FlightAware ADS-B
Tue 10:09:59 AM 59.7810 22.6970 52° Northeast 522 601 37,000  Level FlightAware ADS-B
Tue 10:11:35 AM 59.9040 23.0090 52° Northeast 523 602 37,000  Level FlightAware ADS-B
Tue 10:12:35 AM 60.0140 23.2930 52° Northeast 524 603 37,000  Level FlightAware ADS-B
Tue 10:13:15 AM 60.0720 23.4420 52° Northeast 524 603 37,000  Level FlightAware ADS-B
Tue 10:13:59 AM 60.1380 23.6140 52° Northeast 520 598 37,000  Level FlightAware ADS-B
Tue 10:14:37 AM 60.1930 23.7590 53° Northeast 518 596 37,000  Level FlightAware ADS-B
Tue 10:14:59 AM 60.2250 23.8450 53° Northeast 517 595 37,000  Level FlightAware ADS-B
Tue 10:15:49 AM 60.2770 23.9820 53° Northeast 516 594 37,000  Level FlightAware ADS-B
Tue 10:16:31 AM 60.3560 24.1940 53° Northeast 513 590 37,000  Level FlightAware ADS-B
Tue 10:17:13 AM 60.4160 24.3580 53° Northeast 513 590 37,000  Level FlightAware ADS-B
Tue 10:17:55 AM 60.4760 24.5190 53° Northeast 513 590 37,000  Level FlightAware ADS-B
Tue 10:18:33 AM 60.5290 24.6640 53° Northeast 514 592 37,000  Level FlightAware ADS-B
Tue 10:19:17 AM 60.5910 24.8350 54° Northeast 512 589 37,000  Level FlightAware ADS-B
Tue 10:19:59 AM 60.6500 24.9980 54° Northeast 513 590 37,000  Level FlightAware ADS-B
Tue 10:20:56 AM 60.7220 25.1990 54° Northeast 514 592 37,000  Level FlightAware ADS-B
Tue 10:21:35 AM 60.7830 25.3740 54° Northeast 511 588 37,000  Level FlightAware ADS-B
Tue 10:22:15 AM 60.8360 25.5230 54° Northeast 511 588 37,000  Level FlightAware ADS-B
Tue 10:23:01 AM 60.8900 25.6770 54° Northeast 511 588 37,000  Level FlightAware ADS-B
Tue 10:23:45 AM 60.9450 25.8350 54° Northeast 509 586 37,000  Level FlightAware ADS-B
Tue 10:24:24 AM 61.0140 26.0360 55° Northeast 507 583 37,000  Level FlightAware ADS-B
Tue 10:25:04 AM 61.0680 26.1950 55° Northeast 508 585 37,000  Level FlightAware ADS-B
Tue 10:25:52 AM 61.1330 26.3850 55° Northeast 507 583 37,000  Level FlightAware ADS-B
Tue 10:26:32 AM 61.1850 26.5410 55° Northeast 507 583 37,000  Level FlightAware ADS-B
Tue 10:27:17 AM 61.2460 26.7220 55° Northeast 506 582 37,000  Level FlightAware ADS-B
Tue 10:27:57 AM 61.2990 26.8830 56° Northeast 507 583 37,000  Level FlightAware ADS-B
Tue 10:28:37 AM 61.3490 27.0350 56° Northeast 507 583 37,000  Level FlightAware ADS-B
Tue 10:29:19 AM 61.4000 27.1890 55° Northeast 507 583 37,000  Level FlightAware ADS-B
Tue 10:29:56 AM 61.4560 27.3610 56° Northeast 507 583 37,000  Level FlightAware ADS-B
Tue 10:30:55 AM 61.5180 27.5530 56° Northeast 502 578 37,000  Level FlightAware ADS-B
Tue 10:32:06 AM 61.6250 27.8870 56° Northeast 503 579 37,000  Level FlightAware ADS-B
Tue 10:32:46 AM 61.6740 28.0440 57° Northeast 505 581 37,000  Level FlightAware ADS-B
Tue 10:33:35 AM 61.7380 28.2470 56° Northeast 509 586 37,000  Level FlightAware ADS-B
Tue 10:34:19 AM 61.7970 28.4380 57° Northeast 512 589 37,000  Level FlightAware ADS-B
Tue 10:34:59 AM 61.8490 28.6060 57° Northeast 514 592 37,000  Level FlightAware ADS-B
Tue 10:36:07 AM 61.5340 27.6020 237° Southwest 506 582 37,000  Level FlightAware ADS-B
Tue 10:36:46 AM 61.5570 27.6740 56° Northeast 507 583 37,000  Level FlightAware ADS-B
Tue 10:37:32 AM 62.0370 29.2260 56° Northeast 513 590 37,000  Level FlightAware ADS-B
Tue 10:38:09 AM 62.0840 29.3840 58° Northeast 512 589 37,000  Level FlightAware ADS-B
Tue 10:39:00 AM 62.1490 29.6040 58° Northeast 510 587 37,000  Level FlightAware ADS-B
Tue 10:39:40 AM 62.2030 29.7880 58° Northeast 510 587 37,000  Level FlightAware ADS-B
Tue 10:40:19 AM 62.2430 29.9280 58° Northeast 512 589 37,000  Level FlightAware ADS-B
Tue 10:41:16 AM 62.3070 30.1500 58° Northeast 513 590 37,000  Level FlightAware ADS-B
Tue 10:42:00 AM 62.3550 30.3160 58° Northeast 513 590 37,000  Level FlightAware ADS-B
Tue 10:42:39 AM 62.4180 30.5220 56° Northeast 37,000  Level FlightAware ADS-B
Tue 10:43:18 AM 62.4740 30.7100 57° Northeast 513 590 37,000  Level FlightAware ADS-B
Tue 10:44:22 AM 62.5340 30.9100 57° Northeast 513 590 37,000  Level FlightAware ADS-B
Tue 10:45:01 AM 62.5760 31.0530 57° Northeast 513 590 37,000  Level FlightAware ADS-B
Tue 10:45:39 AM 62.6180 31.1930 57° Northeast 513 590 37,000  Level FlightAware ADS-B
Tue 10:46:19 AM 62.6620 31.3400 57° Northeast 513 590 37,000  Level FlightAware ADS-B
Tue 10:47:07 AM 62.7150 31.5170 57° Northeast 513 590 37,000  Level FlightAware ADS-B
Tue 10:47:44 AM 62.7550 31.6540 57° Northeast 513 590 37,000  Level FlightAware ADS-B
Tue 10:48:32 AM 62.8080 31.8310 57° Northeast 513 590 37,000  Level FlightAware ADS-B
Tue 10:49:06 AM 62.8460 31.9570 57° Northeast 513 590 37,000  Level FlightAware ADS-B
Tue 10:49:54 AM 62.8980 32.1350 57° Northeast 513 590 37,000  Level FlightAware ADS-B
Tue 10:50:31 AM 62.9390 32.2730 57° Northeast 513 590 37,000  Level FlightAware ADS-B
Tue 10:51:22 AM 62.9950 32.4630 57° Northeast 513 590 37,000  Level FlightAware ADS-B
Tue 10:51:59 AM 63.0350 32.6010 57° Northeast 513 590 37,000  Level FlightAware ADS-B
Tue 10:52:36 AM 63.0760 32.7390 57° Northeast 513 590 37,000  Level FlightAware ADS-B
Tue 10:53:26 AM 63.1310 32.9260 57° Northeast 513 590 37,000  Level FlightAware ADS-B
Tue 10:56:00 AM 63.2988 33.5311 58° Northeast  Level Estimated
Tue 10:57:00 AM 63.3635 33.7688 59° Northeast  Level Estimated
Tue 10:57:23 AM 63.5690 34.3020 59° Northeast 499 574 37,000  Level FlightAware ADS-B
Tue 10:58:03 AM 63.6270 34.5030 57° Northeast 499 574 37,000  Level FlightAware ADS-B
Tue 10:58:38 AM 63.6720 34.6590 57° Northeast 499 574 37,000  Level FlightAware ADS-B
Tue 10:59:18 AM 63.7180 34.8230 58° Northeast 501 577 37,000  Level FlightAware ADS-B
Tue 10:59:58 AM 63.7680 35.0030 58° Northeast 501 577 37,000  Level FlightAware ADS-B
Tue 11:01:02 AM 63.8260 35.2100 58° Northeast 501 577 37,000  Level FlightAware ADS-B
Tue 11:01:43 AM 63.8980 35.4690 58° Northeast 501 577 37,000  Level FlightAware ADS-B
Tue 11:02:23 AM 63.9470 35.6520 59° Northeast 502 578 37,000  Level FlightAware ADS-B
Tue 11:03:03 AM 63.9960 35.8310 58° Northeast 503 579 37,000  Level FlightAware ADS-B
Tue 11:03:43 AM 64.0440 36.0100 58° Northeast 502 578 37,000  Level FlightAware ADS-B
Tue 11:04:28 AM 64.0940 36.2000 59° Northeast 501 577 37,000  Level FlightAware ADS-B
Tue 11:05:08 AM 64.1450 36.3950 59° Northeast 503 579 37,000  Level FlightAware ADS-B
Tue 11:06:13 AM 64.2210 36.6840 59° Northeast 503 579 37,000  Level FlightAware ADS-B
Tue 11:06:57 AM 64.2760 36.8990 59° Northeast 505 581 37,000  Level FlightAware ADS-B
Tue 11:07:38 AM 64.3240 37.0840 59° Northeast 507 583 37,000  Level FlightAware ADS-B
Tue 11:08:18 AM 64.3690 37.2620 60° Northeast 507 583 37,000  Level FlightAware ADS-B
Tue 11:09:03 AM 64.4240 37.4800 60° Northeast 506 582 37,000  Level FlightAware ADS-B
Tue 11:09:47 AM 64.4760 37.6890 60° Northeast 504 580 37,000  Level FlightAware ADS-B
Tue 11:10:08 AM 64.4980 37.7790 60° Northeast 503 579 37,000  Level FlightAware ADS-B
Tue 11:11:19 AM 64.5730 38.0820 60° Northeast 503 579 37,000  Level FlightAware ADS-B
Tue 11:11:53 AM 64.6170 38.2670 61° Northeast 506 582 37,000  Level FlightAware ADS-B
Tue 11:12:33 AM 64.6640 38.4640 61° Northeast 506 582 37,000  Level FlightAware ADS-B
Tue 11:13:13 AM 64.7070 38.6430 61° Northeast 505 581 37,000  Level FlightAware ADS-B
Tue 11:14:11 AM 64.7730 38.9210 61° Northeast 504 580 37,000  Level FlightAware ADS-B
Tue 11:14:53 AM 64.8220 39.1330 61° Northeast 506 582 37,000  Level FlightAware ADS-B
Tue 11:15:48 AM 64.8820 39.3940 61° Northeast 507 583 37,000  Level FlightAware ADS-B
Tue 11:16:43 AM 64.9420 39.6600 62° Northeast 506 582 37,000  Level FlightAware ADS-B
Tue 11:17:28 AM 64.9920 39.8790 62° Northeast 505 581 37,000  Level FlightAware ADS-B
Tue 11:18:19 AM 65.0430 40.1100 62° Northeast 505 581 37,000  Level FlightAware ADS-B
Tue 11:19:19 AM 65.1100 40.4150 62° Northeast 502 578 37,000  Level FlightAware ADS-B
Tue 11:20:03 AM 65.1600 40.6420 62° Northeast 501 577 37,000  Level FlightAware ADS-B
Tue 11:20:44 AM 65.2010 40.8320 63° Northeast 499 574 37,000  Level FlightAware ADS-B
Tue 11:21:25 AM 65.2460 41.0440 63° Northeast 497 572 37,000  Level FlightAware ADS-B
Tue 11:22:21 AM 65.3020 41.3100 63° Northeast 498 573 37,000  Level FlightAware ADS-B
Tue 11:23:06 AM 65.3470 41.5270 63° Northeast 498 573 37,000  Level FlightAware ADS-B
Tue 11:23:43 AM 65.3850 41.7110 64° Northeast 496 571 37,000  Level FlightAware ADS-B
Tue 11:24:28 AM 65.4320 41.9410 64° Northeast 495 570 37,000  Level FlightAware ADS-B
Tue 11:25:38 AM 65.5010 42.2830 64° Northeast 497 572 37,000  Level FlightAware ADS-B
Tue 11:26:18 AM 65.5410 42.4820 64° Northeast 501 577 37,000  Level FlightAware ADS-B
Tue 11:27:03 AM 65.5830 42.6950 64° Northeast 498 573 37,000  Level FlightAware ADS-B
Tue 11:27:48 AM 65.6290 42.9330 65° Northeast 499 574 37,000  Level FlightAware ADS-B
Tue 11:28:28 AM 65.6650 43.1220 65° Northeast 497 572 37,000  Level FlightAware ADS-B
Tue 11:29:03 AM 65.6980 43.2930 65° Northeast 495 570 37,000  Level FlightAware ADS-B
Tue 11:29:45 AM 65.7400 43.5130 65° Northeast 497 572 37,000  Level FlightAware ADS-B
Tue 11:30:29 AM 65.7830 43.7440 66° East 495 570 37,000  Level FlightAware ADS-B
Tue 11:31:28 AM 65.8360 44.0240 65° Northeast 493 567 37,000  Level FlightAware ADS-B
Tue 11:32:15 AM 65.8370 44.0320 73° East 493 567 37,000  Level FlightAware ADS-B
Tue 11:32:50 AM 65.8660 44.1830 65° Northeast 493 567 37,000  Level FlightAware ADS-B
Tue 11:33:40 AM 65.9070 44.3980 65° Northeast 493 567 37,000  Level FlightAware ADS-B
Tue 11:34:16 AM 65.9360 44.5530 65° Northeast 493 567 37,000  Level FlightAware ADS-B
Tue 11:35:02 AM 65.9740 44.7510 65° Northeast 493 567 37,000  Level FlightAware ADS-B
Tue 11:35:40 AM 66.0050 44.9150 65° Northeast 493 567 37,000  Level FlightAware ADS-B
Tue 11:36:17 AM 66.0350 45.0750 65° Northeast 493 567 37,000  Level FlightAware ADS-B
Tue 11:37:05 AM 66.0750 45.2830 65° Northeast 493 567 37,000  Level FlightAware ADS-B
Tue 11:37:52 AM 66.1130 45.4870 65° Northeast 493 567 37,000  Level FlightAware ADS-B
Tue 11:38:32 AM 66.1460 45.6610 65° Northeast 493 567 37,000  Level FlightAware ADS-B
Tue 11:39:08 AM 66.1750 45.8170 65° Northeast 493 567 37,000  Level FlightAware ADS-B
Tue 11:40:10 AM 66.2260 46.0870 65° Northeast 493 567 37,000  Level FlightAware ADS-B
Tue 11:40:54 AM 66.2620 46.2790 65° Northeast 493 567 37,000  Level FlightAware ADS-B
Tue 11:41:30 AM 66.2910 46.4370 65° Northeast 493 567 37,000 Level FlightAware ADS-B
Tue 11:44:00 AM 66.3932 47.1713 71° East  Level Estimated
Tue 11:45:00 AM 66.4331 47.4666 71° East  Level Estimated
Tue 11:46:00 AM 66.4725 47.7630 71° East  Level Estimated
Tue 11:47:00 AM 66.5113 48.0602 72° East  Level Estimated
Tue 11:48:00 AM 66.5495 48.3584 72° East  Level Estimated
Tue 11:49:00 AM 66.5872 48.6574 72° East  Level Estimated
Tue 11:50:00 AM 66.6243 48.9574 73° East  Level Estimated
Tue 11:51:00 AM 66.6608 49.2583 73° East  Level Estimated
Tue 11:52:00 AM 66.6967 49.5600 73° East  Level Estimated
Tue 11:53:00 AM 66.7321 49.8627 73° East  Level Estimated
Tue 11:54:00 AM 66.7669 50.1661 74° East  Level Estimated
Tue 11:55:00 AM 66.8011 50.4705 74° East  Level Estimated
Tue 11:56:00 AM 66.8347 50.7757 74° East  Level Estimated
Tue 11:57:00 AM 66.8677 51.0817 75° East  Level Estimated
Tue 11:58:00 AM 66.9001 51.3885 75° East  Level Estimated
Tue 11:59:00 AM 66.9320 51.6962 75° East  Level Estimated
Tue 12:00:00 PM 66.9632 52.0046 75° East  Level Estimated
Tue 12:01:00 PM 66.9938 52.3138 76° East  Level Estimated
Tue 12:02:00 PM 67.0239 52.6238 76° East  Level Estimated
Tue 12:03:00 PM 67.0533 52.9346 76° East  Level Estimated
Tue 12:04:00 PM 67.0821 53.2461 76° East  Level Estimated
Tue 12:05:00 PM 67.1103 53.5583 77° East  Level Estimated
Tue 12:06:00 PM 67.1379 53.8712 77° East  Level Estimated
Tue 12:07:00 PM 67.1649 54.1849 77° East  Level Estimated
Tue 12:08:00 PM 67.1913 54.4993 78° East  Level Estimated
Tue 12:09:00 PM 67.2170 54.8143 78° East  Level Estimated
Tue 12:10:00 PM 67.2422 55.1300 78° East  Level Estimated
Tue 12:11:00 PM 67.2667 55.4464 79° East  Level Estimated
Tue 12:12:00 PM 67.2906 55.7634 79° East  Level Estimated
Tue 12:13:00 PM 67.3139 56.0810 79° East  Level Estimated
Tue 12:14:00 PM 67.3365 56.3992 79° East  Level Estimated
Tue 12:15:00 PM 67.3585 56.7180 80° East  Level Estimated
Tue 12:16:00 PM 67.3799 57.0374 80° East  Level Estimated
Tue 12:17:00 PM 67.4006 57.3574 80° East  Level Estimated
Tue 12:18:00 PM 67.4207 57.6779 81° East  Level Estimated
Tue 12:19:00 PM 67.4402 57.9990 81° East  Level Estimated
Tue 12:20:00 PM 67.4590 58.3206 81° East  Level Estimated
Tue 12:21:00 PM 67.4772 58.6426 81° East  Level Estimated
Tue 12:22:00 PM 67.4948 58.9652 82° East  Level Estimated
Tue 12:23:00 PM 67.5117 59.2882 82° East  Level Estimated
Tue 12:24:00 PM 67.5279 59.6117 82° East  Level Estimated
Tue 12:25:00 PM 67.5436 59.9356 83° East  Level Estimated
Tue 12:26:00 PM 67.5585 60.2599 83° East  Level Estimated
Tue 12:27:00 PM 67.5729 60.5846 83° East  Level Estimated
Tue 12:28:00 PM 67.5865 60.9098 84° East  Level Estimated
Tue 12:29:00 PM 67.5995 61.2352 84° East  Level Estimated
Tue 12:30:00 PM 67.6119 61.5611 84° East  Level Estimated
Tue 12:31:00 PM 67.6236 61.8872 84° East  Level Estimated
Tue 12:32:00 PM 67.6347 62.2137 85° East  Level Estimated
Tue 12:33:00 PM 67.6451 62.5405 85° East  Level Estimated
Tue 12:34:00 PM 67.6549 62.8675 85° East  Level Estimated
Tue 12:35:00 PM 67.6639 63.1949 86° East  Level Estimated
Tue 12:36:00 PM 67.6724 63.5224 86° East  Level Estimated
Tue 12:37:00 PM 67.6802 63.8502 86° East  Level Estimated
Tue 12:38:00 PM 67.6873 64.1782 87° East  Level Estimated
Tue 12:39:00 PM 67.6937 64.5064 87° East  Level Estimated
Tue 12:40:00 PM 67.6995 64.8347 87° East  Level Estimated
Tue 12:41:00 PM 67.7047 65.1633 87° East  Level Estimated
Tue 12:42:00 PM 67.7092 65.4919 88° East  Level Estimated
Tue 12:43:00 PM 67.7130 65.8207 88° East  Level Estimated
Tue 12:44:00 PM 67.7161 66.1495 88° East  Level Estimated
Tue 12:45:00 PM 67.7186 66.4785 89° East  Level Estimated
Tue 12:46:00 PM 67.7204 66.8075 89° East  Level Estimated
Tue 12:47:00 PM 67.7216 67.1365 89° East  Level Estimated
Tue 12:48:00 PM 67.7221 67.4656 90° East  Level Estimated
Tue 12:49:00 PM 67.7219 67.7946 90° East  Level Estimated
Tue 12:50:00 PM 67.7211 68.1237 90° East  Level Estimated
Tue 12:51:00 PM 67.7196 68.4527 91° East  Level Estimated
Tue 12:52:00 PM 67.7175 68.7817 91° East  Level Estimated
Tue 12:53:00 PM 67.7147 69.1106 91° East  Level Estimated
Tue 12:54:00 PM 67.7112 69.4394 91° East  Level Estimated
Tue 12:55:00 PM 67.7070 69.7681 92° East  Level Estimated
Tue 12:56:00 PM 67.7022 70.0967 92° East  Level Estimated
Tue 12:57:00 PM 67.6968 70.4251 92° East  Level Estimated
Tue 12:58:00 PM 67.6907 70.7534 93° East  Level Estimated
Tue 12:59:00 PM 67.6839 71.0815 93° East  Level Estimated
Tue 01:00:00 PM 67.6764 71.4094 93° East  Level Estimated
Tue 01:01:00 PM 67.6683 71.7370 94° East  Level Estimated
Tue 01:02:00 PM 67.6596 72.0645 94° East  Level Estimated
Tue 01:03:00 PM 67.6502 72.3917 94° East  Level Estimated
Tue 01:04:00 PM 67.6401 72.7186 94° East  Level Estimated
Tue 01:05:00 PM 67.6294 73.0452 95° East  Level Estimated
Tue 01:06:00 PM 67.6180 73.3716 95° East  Level Estimated
Tue 01:07:00 PM 67.6059 73.6975 95° East  Level Estimated
Tue 01:08:00 PM 67.5932 74.0232 96° East  Level Estimated
Tue 01:09:00 PM 67.5799 74.3485 96° East  Level Estimated
Tue 01:10:00 PM 67.5659 74.6734 96° East  Level Estimated
Tue 01:11:00 PM 67.5513 74.9980 97° East  Level Estimated
Tue 01:12:00 PM 67.5360 75.3221 97° East  Level Estimated
Tue 01:13:00 PM 67.5201 75.6458 97° East  Level Estimated
Tue 01:14:00 PM 67.5035 75.9690 97° East  Level Estimated
Tue 01:15:00 PM 67.4863 76.2918 98° East  Level Estimated
Tue 01:16:00 PM 67.4684 76.6142 98° East  Level Estimated
Tue 01:17:00 PM 67.4499 76.9360 98° East  Level Estimated
Tue 01:18:00 PM 67.4307 77.2573 99° East  Level Estimated
Tue 01:19:00 PM 67.4109 77.5781 99° East  Level Estimated
Tue 01:20:00 PM 67.3905 77.8983 99° East  Level Estimated
Tue 01:21:00 PM 67.3695 78.2180 100° East  Level Estimated
Tue 01:22:00 PM 67.3478 78.5371 100° East  Level Estimated
Tue 01:23:00 PM 67.3255 78.8557 100° East  Level Estimated
Tue 01:24:00 PM 67.3025 79.1736 100° East  Level Estimated
Tue 01:25:00 PM 67.2789 79.4909 101° East  Level Estimated
Tue 01:26:00 PM 67.2547 79.8076 101° East  Level Estimated
Tue 01:27:00 PM 67.2299 80.1236 101° East  Level Estimated
Tue 01:28:00 PM 67.2045 80.4390 102° East  Level Estimated
Tue 01:29:00 PM 67.1784 80.7537 102° East  Level Estimated
Tue 01:30:00 PM 67.1517 81.0677 102° East  Level Estimated
Tue 01:31:00 PM 67.1245 81.3811 102° East  Level Estimated
Tue 01:32:00 PM 67.0965 81.6937 103° East  Level Estimated
Tue 01:33:00 PM 67.0680 82.0055 103° East  Level Estimated
Tue 01:34:00 PM 67.0389 82.3167 103° East  Level Estimated
Tue 01:35:00 PM 67.0092 82.6271 104° East  Level Estimated
Tue 01:36:00 PM 66.9789 82.9367 104° East  Level Estimated
Tue 01:37:00 PM 66.9479 83.2455 104° East  Level Estimated
Tue 01:38:00 PM 66.9164 83.5536 104° East  Level Estimated
Tue 01:39:00 PM 66.8843 83.8608 105° East  Level Estimated
Tue 01:40:00 PM 66.8515 84.1672 105° East  Level Estimated
Tue 01:41:00 PM 66.8182 84.4728 105° East  Level Estimated
Tue 01:42:00 PM 66.7843 84.7776 106° East  Level Estimated
Tue 01:43:00 PM 66.7499 85.0815 106° East  Level Estimated
Tue 01:44:00 PM 66.7148 85.3846 106° East  Level Estimated
Tue 01:45:00 PM 66.6791 85.6868 106° East  Level Estimated
Tue 01:46:00 PM 66.6429 85.9881 107° East  Level Estimated
Tue 01:47:00 PM 66.6061 86.2886 107° East  Level Estimated
Tue 01:48:00 PM 66.5687 86.5881 107° East  Level Estimated
Tue 01:49:00 PM 66.5308 86.8867 108° East  Level Estimated
Tue 01:50:00 PM 66.4923 87.1844 108° East  Level Estimated
Tue 01:51:00 PM 66.4532 87.4812 108° East  Level Estimated
Tue 01:52:00 PM 66.4136 87.7771 108° East  Level Estimated
Tue 01:53:00 PM 66.3734 88.0720 109° East  Level Estimated
Tue 01:54:00 PM 66.3327 88.3659 109° East  Level Estimated
Tue 01:55:00 PM 66.2914 88.6589 109° East  Level Estimated
Tue 01:56:00 PM 66.2495 88.9510 109° East  Level Estimated
Tue 01:57:00 PM 66.2071 89.2420 110° East  Level Estimated
Tue 01:58:00 PM 66.1642 89.5321 110° East  Level Estimated
Tue 01:59:00 PM 66.1207 89.8212 110° East  Level Estimated
Tue 02:00:00 PM 66.0767 90.1093 111° Southeast  Level Estimated
Tue 02:01:00 PM 66.0321 90.3964 111° Southeast  Level Estimated
Tue 02:02:00 PM 65.9870 90.6825 111° Southeast  Level Estimated
Tue 02:03:00 PM 65.9414 90.9675 111° Southeast  Level Estimated
Tue 02:04:00 PM 65.8953 91.2516 112° Southeast  Level Estimated
Tue 02:05:00 PM 65.8486 91.5346 112° Southeast  Level Estimated
Tue 02:06:00 PM 65.8014 91.8166 112° Southeast  Level Estimated
Tue 02:07:00 PM 65.7537 92.0975 112° Southeast  Level Estimated
Tue 02:08:00 PM 65.7055 92.3774 113° Southeast  Level Estimated
Tue 02:09:00 PM 65.6568 92.6563 113° Southeast  Level Estimated
Tue 02:10:00 PM 65.6075 92.9341 113° Southeast  Level Estimated
Tue 02:11:00 PM 65.5578 93.2109 113° Southeast  Level Estimated
Tue 02:12:00 PM 65.5075 93.4866 114° Southeast  Level Estimated
Tue 02:13:00 PM 65.4568 93.7612 114° Southeast  Level Estimated
Tue 02:14:00 PM 65.4056 94.0348 114° Southeast  Level Estimated
Tue 02:15:00 PM 65.3538 94.3072 114° Southeast  Level Estimated
Tue 02:16:00 PM 65.3016 94.5787 115° Southeast  Level Estimated
Tue 02:17:00 PM 65.2489 94.8490 115° Southeast  Level Estimated
Tue 02:18:00 PM 65.1957 95.1182 115° Southeast  Level Estimated
Tue 02:19:00 PM 65.1421 95.3864 115° Southeast  Level Estimated
Tue 02:20:00 PM 65.0879 95.6535 116° Southeast  Level Estimated
Tue 02:21:00 PM 65.0333 95.9195 116° Southeast  Level Estimated
Tue 02:22:00 PM 64.9782 96.1844 116° Southeast  Level Estimated
Tue 02:23:00 PM 64.9227 96.4482 116° Southeast  Level Estimated
Tue 02:24:00 PM 64.8666 96.7109 117° Southeast  Level Estimated
Tue 02:25:00 PM 64.8102 96.9725 117° Southeast  Level Estimated
Tue 02:26:00 PM 64.7532 97.2330 117° Southeast  Level Estimated
Tue 02:27:00 PM 64.6958 97.4924 117° Southeast  Level Estimated
Tue 02:28:00 PM 64.6380 97.7507 118° Southeast  Level Estimated
Tue 02:29:00 PM 64.5797 98.0080 118° Southeast  Level Estimated
Tue 02:30:00 PM 64.5209 98.2641 118° Southeast  Level Estimated
Tue 02:31:00 PM 64.4618 98.5191 118° Southeast  Level Estimated
Tue 02:32:00 PM 64.4021 98.7730 118° Southeast  Level Estimated
Tue 02:33:00 PM 64.3421 99.0258 119° Southeast  Level Estimated
Tue 02:34:00 PM 64.2816 99.2775 119° Southeast  Level Estimated
Tue 02:35:00 PM 64.2207 99.5281 119° Southeast  Level Estimated
Tue 02:36:00 PM 64.1593 99.7775 119° Southeast  Level Estimated
Tue 02:37:00 PM 64.0975 100.0259 120° Southeast  Level Estimated
Tue 02:38:00 PM 64.0353 100.2732 120° Southeast  Level Estimated
Tue 02:39:00 PM 63.9727 100.5193 120° Southeast  Level Estimated
Tue 02:40:00 PM 63.9097 100.7644 120° Southeast  Level Estimated
Tue 02:41:00 PM 63.8463 101.0084 120° Southeast  Level Estimated
Tue 02:42:00 PM 63.7824 101.2512 121° Southeast  Level Estimated
Tue 02:43:00 PM 63.7182 101.4930 121° Southeast  Level Estimated
Tue 02:44:00 PM 63.6535 101.7337 121° Southeast  Level Estimated
Tue 02:45:00 PM 63.5884 101.9732 121° Southeast  Level Estimated
Tue 02:46:00 PM 63.5230 102.2117 122° Southeast  Level Estimated
Tue 02:47:00 PM 63.4571 102.4491 122° Southeast  Level Estimated
Tue 02:48:00 PM 63.3909 102.6853 122° Southeast  Level Estimated
Tue 02:49:00 PM 63.3243 102.9205 122° Southeast  Level Estimated
Tue 02:50:00 PM 63.2572 103.1546 122° Southeast  Level Estimated
Tue 02:51:00 PM 63.1898 103.3876 123° Southeast  Level Estimated
Tue 02:52:00 PM 63.1221 103.6196 123° Southeast  Level Estimated
Tue 02:53:00 PM 63.0539 103.8504 123° Southeast  Level Estimated
Tue 02:54:00 PM 62.9854 104.0802 123° Southeast  Level Estimated
Tue 02:55:00 PM 62.9165 104.3089 123° Southeast  Level Estimated
Tue 02:56:00 PM 62.8472 104.5365 124° Southeast  Level Estimated
Tue 02:57:00 PM 62.7776 104.7630 124° Southeast  Level Estimated
Tue 02:58:00 PM 62.7076 104.9885 124° Southeast  Level Estimated
Tue 02:59:00 PM 62.6372 105.2129 124° Southeast  Level Estimated
Tue 03:00:00 PM 62.5665 105.4362 124° Southeast  Level Estimated
Tue 03:01:00 PM 62.4954 105.6585 125° Southeast  Level Estimated
Tue 03:02:00 PM 62.4240 105.8797 125° Southeast  Level Estimated
Tue 03:03:00 PM 62.3522 106.0999 125° Southeast  Level Estimated
Tue 03:04:00 PM 62.2801 106.3190 125° Southeast  Level Estimated
Tue 03:05:00 PM 62.2077 106.5370 125° Southeast  Level Estimated
Tue 03:06:00 PM 62.1349 106.7540 126° Southeast  Level Estimated
Tue 03:07:00 PM 62.0617 106.9700 126° Southeast  Level Estimated
Tue 03:08:00 PM 61.9883 107.1849 126° Southeast  Level Estimated
Tue 03:09:00 PM 61.9145 107.3988 126° Southeast  Level Estimated
Tue 03:10:00 PM 61.8403 107.6117 126° Southeast  Level Estimated
Tue 03:11:00 PM 61.7659 107.8235 127° Southeast  Level Estimated
Tue 03:12:00 PM 61.6911 108.0343 127° Southeast  Level Estimated
Tue 03:13:00 PM 61.6160 108.2441 127° Southeast  Level Estimated
Tue 03:14:00 PM 61.5405 108.4528 127° Southeast  Level Estimated
Tue 03:15:00 PM 61.4648 108.6606 127° Southeast  Level Estimated
Tue 03:16:00 PM 61.3887 108.8673 127° Southeast  Level Estimated
Tue 03:17:00 PM 61.3124 109.0731 128° Southeast  Level Estimated
Tue 03:18:00 PM 61.2357 109.2778 128° Southeast  Level Estimated
Tue 03:19:00 PM 61.1587 109.4815 128° Southeast  Level Estimated
Tue 03:20:00 PM 61.0814 109.6842 128° Southeast  Level Estimated
Tue 03:21:00 PM 61.0038 109.8860 128° Southeast  Level Estimated
Tue 03:22:00 PM 60.9259 110.0868 129° Southeast  Level Estimated
Tue 03:23:00 PM 60.8477 110.2866 129° Southeast  Level Estimated
Tue 03:24:00 PM 60.7692 110.4854 129° Southeast  Level Estimated
Tue 03:25:00 PM 60.6904 110.6832 129° Southeast  Level Estimated
Tue 03:26:00 PM 60.6114 110.8801 129° Southeast  Level Estimated
Tue 03:27:00 PM 60.5320 111.0760 129° Southeast  Level Estimated
Tue 03:28:00 PM 60.4524 111.2709 130° Southeast  Level Estimated
Tue 03:29:00 PM 60.3724 111.4649 130° Southeast  Level Estimated
Tue 03:30:00 PM 60.2922 111.6579 130° Southeast  Level Estimated
Tue 03:31:00 PM 60.2117 111.8500 130° Southeast  Level Estimated
Tue 03:31:25 PM 58.9860 119.9410 130° Southeast 473 544 39,000  Level FlightAware ADS-B
Tue 03:32:00 PM 60.1310 112.0412 130° Southeast  Level Estimated
Tue 03:32:10 PM 58.9290 120.0920 126° Southeast 475 547 39,000  Level FlightAware ADS-B
Tue 03:32:55 PM 58.8710 120.2420 127° Southeast 478 550 39,000  Level FlightAware ADS-B
Tue 03:33:50 PM 58.8010 120.4240 127° Southeast 480 552 39,000  Level FlightAware ADS-B
Tue 03:34:30 PM 58.7470 120.5610 127° Southeast 480 552 39,000  Level FlightAware ADS-B
Tue 03:35:52 PM 58.6320 120.8460 128° Southeast 472 543 39,000  Level FlightAware ADS-B
Tue 03:36:31 PM 58.5840 120.9510 131° Southeast 472 543 39,000  Level FlightAware ADS-B
Tue 03:37:18 PM 58.5970 120.9140 304° West 469 540 39,000  Level FlightAware ADS-B
Tue 03:38:10 PM 58.4290 121.2390 135° Southeast 474 545 39,000  Level FlightAware ADS-B
Tue 03:39:16 PM 58.3250 121.4340 135° Southeast 478 550 39,000  Level FlightAware ADS-B
Tue 03:39:52 PM 58.2680 121.5440 135° Southeast 478 550 39,000  Level FlightAware ADS-B
Tue 03:40:31 PM 58.2160 121.6420 135° Southeast 478 550 39,000  Level FlightAware ADS-B
Tue 03:41:19 PM 58.1300 121.8020 135° Southeast 475 547 39,000  Level FlightAware ADS-B
Tue 03:42:17 PM 58.0470 121.9570 135° Southeast 477 549 39,000  Level FlightAware ADS-B
Tue 03:42:54 PM 57.9790 122.0820 136° Southeast 478 550 39,000  Level FlightAware ADS-B
Tue 03:43:39 PM 57.9050 122.2180 136° Southeast 478 550 39,000  Level FlightAware ADS-B
Tue 03:44:14 PM 57.8590 122.3040 135° Southeast 478 550 39,000  Level FlightAware ADS-B
Tue 03:45:58 PM 57.6940 122.6020 144° Southeast 480 552 39,000  Level FlightAware ADS-B
Tue 03:46:00 PM 57.6813 122.5483 144° Southeast  Level Estimated
Tue 03:46:47 PM 57.6130 122.7470 136° Southeast 481 554 39,000  Level FlightAware ADS-B
Tue 03:47:29 PM 57.5460 122.8670 136° Southeast 483 556 39,000  Level FlightAware ADS-B
Tue 03:48:19 PM 57.4650 123.0110 136° Southeast 482 555 39,000  Level FlightAware ADS-B
Tue 03:48:59 PM 57.3980 123.1290 136° Southeast 476 548 39,000  Level FlightAware ADS-B
Tue 03:49:45 PM 57.3330 123.2440 136° Southeast 476 548 39,000  Level FlightAware ADS-B
Tue 03:50:40 PM 57.2350 123.4140 137° Southeast 478 550 39,000  Level FlightAware ADS-B
Tue 03:51:20 PM 57.1710 123.5250 137° Southeast 476 548 39,000  Level FlightAware ADS-B
Tue 03:52:01 PM 57.1030 123.6430 137° Southeast 476 548 39,000  Level FlightAware ADS-B
Tue 03:52:41 PM 57.0410 123.7480 137° Southeast 479 551 39,000  Level FlightAware ADS-B
Tue 03:53:22 PM 56.9720 123.8660 137° Southeast 481 554 39,000  Level FlightAware ADS-B
Tue 03:54:07 PM 56.9000 123.9870 137° Southeast 481 554 39,000  Level FlightAware ADS-B
Tue 03:55:07 PM 56.8160 124.1300 137° Southeast 479 551 39,000  Level FlightAware ADS-B
Tue 03:55:40 PM 56.7610 124.2220 137° Southeast 476 548 39,000  Level FlightAware ADS-B
Tue 03:56:29 PM 56.6680 124.3770 137° Southeast 479 551 39,000  Level FlightAware ADS-B
Tue 03:57:09 PM 56.6030 124.4840 138° Southeast 480 552 39,000  Level FlightAware ADS-B
Tue 03:58:24 PM 56.4910 124.6700 137° Southeast 481 554 39,000  Level FlightAware ADS-B
Tue 03:59:01 PM 56.4400 124.7570 137° Southeast 481 554 39,000  Level FlightAware ADS-B
Tue 03:59:37 PM 56.3900 124.8410 137° Southeast 481 554 39,000  Level FlightAware ADS-B
Tue 04:00:56 PM 56.2810 125.0240 137° Southeast 481 554 39,000  Level FlightAware ADS-B
Tue 04:01:34 PM 56.2280 125.1130 137° Southeast 481 554 39,000  Level FlightAware ADS-B
Tue 04:03:04 PM 56.1040 125.3210 137° Southeast 481 554 39,000  Level FlightAware ADS-B
Tue 04:03:40 PM 56.0540 125.4040 137° Southeast 481 554 39,000  Level FlightAware ADS-B
Tue 04:04:27 PM 55.9890 125.5130 137° Southeast 481 554 39,000  Level FlightAware ADS-B
Tue 04:05:04 PM 55.9380 125.5980 137° Southeast 481 554 39,000  Level FlightAware ADS-B
Tue 04:06:05 PM 55.8530 125.7380 137° Southeast 481 554 39,000  Level FlightAware ADS-B
Tue 04:06:39 PM 55.8060 125.8160 137° Southeast 481 554 39,000  Level FlightAware ADS-B
Tue 04:07:27 PM 55.7400 125.9270 137° Southeast 481 554 39,000  Level FlightAware ADS-B
Tue 04:10:00 PM 55.4708 126.2270 148° Southeast  Level Estimated
Tue 04:11:00 PM 55.3650 126.3435 148° Southeast  Level Estimated
Tue 04:12:00 PM 55.2591 126.4594 148° Southeast  Level Estimated
Tue 04:13:00 PM 55.1531 126.5747 148° Southeast  Level Estimated
Tue 04:14:00 PM 55.0470 126.6893 148° Southeast  Level Estimated
Tue 04:15:00 PM 54.9408 126.8034 148° Southeast  Level Estimated
Tue 04:16:00 PM 54.8345 126.9169 148° Southeast  Level Estimated
Tue 04:17:00 PM 54.7281 127.0297 149° Southeast  Level Estimated
Tue 04:18:00 PM 54.6215 127.1420 149° Southeast  Level Estimated
Tue 04:19:00 PM 54.5149 127.2537 149° Southeast  Level Estimated
Tue 04:20:00 PM 54.4082 127.3648 149° Southeast  Level Estimated
Tue 04:21:00 PM 54.3013 127.4753 149° Southeast  Level Estimated
Tue 04:22:00 PM 54.1944 127.5853 149° Southeast  Level Estimated
Tue 04:23:00 PM 54.0874 127.6946 149° Southeast  Level Estimated
Tue 04:24:00 PM 53.9803 127.8035 149° Southeast  Level Estimated
Tue 04:25:00 PM 53.8730 127.9117 149° Southeast  Level Estimated
Tue 04:26:00 PM 53.7657 128.0194 149° Southeast  Level Estimated
Tue 04:27:00 PM 53.6583 128.1266 149° Southeast  Level Estimated
Tue 04:28:00 PM 53.5508 128.2332 149° Southeast  Level Estimated
Tue 04:29:00 PM 53.4431 128.3393 150° Southeast  Level Estimated
Tue 04:30:00 PM 53.3354 128.4448 150° Southeast  Level Estimated
Tue 04:31:00 PM 53.2276 128.5499 150° Southeast  Level Estimated
Tue 04:32:00 PM 53.1197 128.6543 150° Southeast  Level Estimated
Tue 04:33:00 PM 53.0118 128.7583 150° Southeast  Level Estimated
Tue 04:34:00 PM 52.9037 128.8617 150° Southeast  Level Estimated
Tue 04:35:00 PM 52.7955 128.9646 150° Southeast  Level Estimated
Tue 04:36:00 PM 52.6873 129.0671 150° Southeast  Level Estimated
Tue 04:37:00 PM 52.5789 129.1690 150° Southeast  Level Estimated
Tue 04:38:00 PM 52.4705 129.2704 150° Southeast  Level Estimated
Tue 04:39:00 PM 52.3620 129.3713 150° Southeast  Level Estimated
Tue 04:40:00 PM 52.2534 129.4717 150° Southeast  Level Estimated
Tue 04:41:00 PM 52.1447 129.5716 151° Southeast  Level Estimated
Tue 04:42:00 PM 52.0359 129.6710 151° Southeast  Level Estimated
Tue 04:43:00 PM 51.9271 129.7700 151° Southeast  Level Estimated
Tue 04:44:00 PM 51.8182 129.8684 151° Southeast  Level Estimated
Tue 04:45:00 PM 51.7092 129.9664 151° Southeast  Level Estimated
Tue 04:46:00 PM 51.6001 130.0639 151° Southeast  Level Estimated
Tue 04:47:00 PM 51.4909 130.1610 151° Southeast  Level Estimated
Tue 04:47:57 PM 51.3150 132.0650 151° Southeast 505 581 39,000  Level FlightAware ADS-B
Tue 04:48:00 PM 51.3816 130.2576 151° Southeast  Level Estimated
Tue 04:49:00 PM 51.2723 130.3537 151° Southeast  Level Estimated
Tue 04:49:07 PM 51.2020 132.2040 142° Southeast 504 580 39,000  Level FlightAware ADS-B
Tue 04:49:51 PM 51.1090 132.3180 142° Southeast 504 580 39,000  Level FlightAware ADS-B
Tue 04:50:50 PM 51.0120 132.4330 143° Southeast 505 581 39,000  Level FlightAware ADS-B
Tue 04:51:30 PM 50.9380 132.5130 146° Southeast 501 577 39,000  Level FlightAware ADS-B
Tue 04:52:18 PM 50.8420 132.6190 145° Southeast 500 575 39,000  Level FlightAware ADS-B
Tue 04:53:09 PM 50.7410 132.7290 145° Southeast 499 574 39,000  Level FlightAware ADS-B
Tue 04:53:53 PM 50.6580 132.8200 145° Southeast 501 577 39,000  Level FlightAware ADS-B
Tue 04:54:28 PM 50.5890 132.8950 145° Southeast 503 579 39,000  Level FlightAware ADS-B
Tue 04:55:30 PM 50.4750 133.0180 146° Southeast 507 583 39,000  Level FlightAware ADS-B
Tue 04:56:14 PM 50.3880 133.1120 145° Southeast 507 583 39,000  Level FlightAware ADS-B
Tue 04:56:53 PM 50.3190 133.1860 146° Southeast 504 580 39,000  Level FlightAware ADS-B
Tue 04:57:39 PM 50.2240 133.2880 146° Southeast 505 581 39,000  Level FlightAware ADS-B
Tue 04:58:19 PM 50.1390 133.3780 146° Southeast 508 585 39,000  Level FlightAware ADS-B
Tue 04:58:55 PM 50.0680 133.4540 145° Southeast 504 580 39,000  Level FlightAware ADS-B
Tue 04:59:52 PM 49.9650 133.5620 146° Southeast 499 574 39,000  Level FlightAware ADS-B
Tue 05:00:58 PM 49.8330 133.6990 146° Southeast 495 570 39,000  Level FlightAware ADS-B
Tue 05:01:56 PM 49.7310 133.8050 146° Southeast 496 571 39,000  Level FlightAware ADS-B
Tue 05:02:50 PM 49.6260 133.9140 146° Southeast 502 578 39,000  Level FlightAware ADS-B
Tue 05:03:33 PM 49.5430 134.0000 146° Southeast 501 577 39,000  Level FlightAware ADS-B
Tue 05:04:18 PM 49.4690 134.0760 146° Southeast 499 574 39,000  Level FlightAware ADS-B
Tue 05:05:09 PM 49.3570 134.1900 146° Southeast 501 577 39,000  Level FlightAware ADS-B
Tue 05:05:51 PM 49.2990 134.2500 146° Southeast 501 577 39,000  Level FlightAware ADS-B
Tue 05:06:40 PM 49.2190 134.3330 146° Southeast 501 577 39,000  Level FlightAware ADS-B
Tue 05:07:17 PM 49.1580 134.3950 146° Southeast 501 577 39,000  Level FlightAware ADS-B
Tue 05:08:03 PM 49.0830 134.4720 146° Southeast 501 577 39,000  Level FlightAware ADS-B
Tue 05:08:40 PM 49.0080 134.5730 139° Southeast 504 580 39,000  Level FlightAware ADS-B
Tue 05:09:21 PM 48.9440 134.6620 138° Southeast 506 582 39,000  Level FlightAware ADS-B
Tue 05:10:20 PM 48.8530 134.7890 137° Southeast 506 582 39,000  Level FlightAware ADS-B
Tue 05:10:56 PM 48.8010 134.8630 137° Southeast 506 582 39,000  Level FlightAware ADS-B
Tue 05:11:27 PM 48.7230 134.9660 139° Southeast 505 581 39,000  Level FlightAware ADS-B
Tue 05:12:06 PM 48.6670 135.0460 137° Southeast 505 581 39,000  Level FlightAware ADS-B
Tue 05:12:52 PM 48.6000 135.1400 137° Southeast 505 581 39,000  Level FlightAware ADS-B
Tue 05:13:40 PM 48.5300 135.2390 137° Southeast 505 581 39,000  Level FlightAware ADS-B
Tue 05:13:48 PM 48.4370 135.2830 163° South 496 571 39,000  Level FlightAware ADS-B
Tue 05:14:49 PM 48.3240 135.3590 156° South 496 571 39,000  Level FlightAware ADS-B
Tue 05:17:00 PM 48.0653 135.4869 162° South  Level Estimated
Tue 05:17:02 PM 48.0390 135.5470 162° South 497 572 39,000  Level FlightAware ADS-B
Tue 05:17:48 PM 47.9420 135.6110 156° South 495 570 39,000  Level FlightAware ADS-B
Tue 05:18:26 PM 47.8560 135.6680 156° South 493 567 39,000  Level FlightAware ADS-B
Tue 05:19:12 PM 47.7640 135.7280 156° South 495 570 39,000  Level FlightAware ADS-B
Tue 05:19:55 PM 47.6730 135.7870 156° South 495 570 39,000  Level FlightAware ADS-B
Tue 05:20:31 PM 47.5990 135.8350 156° South 497 572 39,000  Level FlightAware ADS-B
Tue 05:21:15 PM 47.5050 135.8960 156° South 498 573 39,000  Level FlightAware ADS-B
Tue 05:21:58 PM 47.4150 135.9540 156° South 493 567 39,000  Level FlightAware ADS-B
Tue 05:22:36 PM 47.3260 136.0110 157° South 488 562 39,000  Level FlightAware ADS-B
Tue 05:23:24 PM 47.2340 136.0700 156° South 489 563 39,000  Level FlightAware ADS-B
Tue 05:24:01 PM 47.1460 136.1290 155° Southeast 492 566 39,000  Level FlightAware ADS-B
Tue 05:24:46 PM 47.0700 136.1800 155° Southeast 490 564 39,000  Level FlightAware ADS-B
Tue 05:25:26 PM 46.9900 136.2320 156° South 488 562 39,000  Level FlightAware ADS-B
Tue 05:26:06 PM 46.8980 136.2910 156° South 487 560 39,000  Level FlightAware ADS-B
Tue 05:26:54 PM 46.7920 136.3360 164° South 481 554 39,000  Level FlightAware ADS-B
Tue 05:27:37 PM 46.7110 136.3520 172° South 481 554 39,000  Level FlightAware ADS-B
Tue 05:28:15 PM 46.6240 136.3650 174° South 482 555 39,000  Level FlightAware ADS-B
Tue 05:29:07 PM 46.5060 136.3840 174° South 485 558 39,000  Level FlightAware ADS-B
Tue 05:29:53 PM 46.4060 136.3990 174° South 487 560 39,000  Level FlightAware ADS-B
Tue 05:31:29 PM 46.2060 136.4290 174° South 485 558 39,000  Level FlightAware ADS-B
Tue 05:32:07 PM 46.1070 136.4440 174° South 482 555 39,000  Level FlightAware ADS-B
Tue 05:32:54 PM 45.9940 136.4600 174° South 481 554 39,000  Level FlightAware ADS-B
Tue 05:33:32 PM 45.9300 136.4700 174° South 481 554 39,000  Level FlightAware ADS-B
Tue 05:34:32 PM 45.7850 136.4910 174° South 486 559 39,000  Level FlightAware ADS-B
Tue 05:35:07 PM 45.7000 136.5030 174° South 487 560 39,000  Level FlightAware ADS-B
Tue 05:36:06 PM 45.5750 136.5210 174° South 490 564 39,000  Level FlightAware ADS-B
Tue 05:36:49 PM 45.4950 136.5330 174° South 489 563 39,000  Level FlightAware ADS-B
Tue 05:37:37 PM 45.4030 136.5470 174° South 489 563 39,000  Level FlightAware ADS-B
Tue 05:38:16 PM 45.3280 136.5580 174° South 489 563 39,000  Level FlightAware ADS-B
Tue 05:38:52 PM 45.2600 136.5680 174° South 489 563 39,000  Level FlightAware ADS-B
Tue 05:39:40 PM 45.1680 136.5820 174° South 489 563 39,000  Level FlightAware ADS-B
Tue 05:40:16 PM 45.0990 136.5920 174° South 489 563 39,000  Level FlightAware ADS-B
Tue 05:41:04 PM 45.0070 136.6060 174° South 489 563 39,000  Level FlightAware ADS-B
Tue 05:41:40 PM 44.9380 136.6160 174° South 489 563 39,000  Level FlightAware ADS-B
Tue 05:42:29 PM 44.8450 136.6300 174° South 489 563 39,000  Level FlightAware ADS-B
Tue 05:43:03 PM 44.7800 136.6400 174° South 489 563 39,000  Level FlightAware ADS-B
Tue 05:43:51 PM 44.6880 136.6530 174° South 489 563 39,000  Level FlightAware ADS-B
Tue 05:44:27 PM 44.6190 136.6640 174° South 489 563 39,000  Level FlightAware ADS-B
Tue 05:45:19 PM 44.5190 136.6780 174° South 489 563 39,000  Level FlightAware ADS-B
Tue 05:45:55 PM 44.4510 136.6880 174° South 489 563 39,000  Level FlightAware ADS-B
Tue 05:48:00 PM 44.2031 136.8088 161° South  Level Estimated
Tue 05:49:00 PM 44.0841 136.8664 161° South  Level Estimated
Tue 05:50:00 PM 43.9650 136.9237 161° South  Level Estimated
Tue 05:51:00 PM 43.8459 136.9809 161° South  Level Estimated
Tue 05:52:00 PM 43.7268 137.0378 161° South  Level Estimated
Tue 05:53:00 PM 43.6076 137.0945 161° South  Level Estimated
Tue 05:54:00 PM 43.4885 137.1510 161° South  Level Estimated
Tue 05:55:00 PM 43.3693 137.2072 161° South  Level Estimated
Tue 05:55:05 PM 42.9400 136.7280 161° South 480 552 39,000  Level FlightAware ADS-B
Tue 05:55:55 PM 42.8430 136.7320 178° South 482 555 39,000  Level FlightAware ADS-B
Tue 05:56:35 PM 42.7370 136.7370 178° South 481 554 39,000  Level FlightAware ADS-B
Tue 05:57:16 PM 42.6590 136.7400 178° South 482 555 39,000  Level FlightAware ADS-B
Tue 05:58:05 PM 42.5350 136.7450 178° South 480 552 39,000  Level FlightAware ADS-B
Tue 05:58:42 PM 42.4580 136.7490 178° South 479 551 39,000  Level FlightAware ADS-B
Tue 05:59:30 PM 42.3680 136.7530 178° South 479 551 39,000  Level FlightAware ADS-B
Tue 06:00:07 PM 42.2980 136.7560 178° South 479 551 39,000  Level FlightAware ADS-B
Tue 06:00:56 PM 42.2060 136.7610 178° South 479 551 39,000  Level FlightAware ADS-B
Tue 06:01:34 PM 42.1350 136.7640 178° South 479 551 39,000  Level FlightAware ADS-B
Tue 06:02:11 PM 42.0650 136.7670 178° South 479 551 39,000  Level FlightAware ADS-B
Tue 06:03:01 PM 41.8800 136.7730 179° South 468 539 39,000  Level FlightAware ADS-B
Tue 06:03:41 PM 41.7880 136.7770 178° South 469 540 39,000  Level FlightAware ADS-B
Tue 06:04:23 PM 41.7130 136.7810 178° South 468 539 39,000  Level FlightAware ADS-B
Tue 06:05:06 PM 41.6000 136.8080 170° South 482 555 39,000  Level FlightAware ADS-B
Tue 06:06:01 PM 41.4840 136.8590 162° South 490 564 39,000  Level FlightAware ADS-B
Tue 06:06:41 PM 41.3930 136.9010 161° South 489 563 39,000  Level FlightAware ADS-B
Tue 06:07:26 PM 41.2950 136.9450 161° South 494 568 39,000  Level FlightAware ADS-B
Tue 06:08:07 PM 41.2070 136.9850 161° South 491 565 39,000  Level FlightAware ADS-B
Tue 06:08:47 PM 41.1200 137.0240 161° South 488 562 39,000  Level FlightAware ADS-B
Tue 06:09:31 PM 41.0300 137.0650 161° South 489 563 39,000  Level FlightAware ADS-B
Tue 06:10:12 PM 40.9400 137.1050 161° South 491 565 39,000  Level FlightAware ADS-B
Tue 06:10:57 PM 40.8410 137.1500 161° South 493 567 39,000  Level FlightAware ADS-B
Tue 06:11:40 PM 40.7610 137.1860 161° South 494 568 39,000  Level FlightAware ADS-B
Tue 06:12:18 PM 40.6750 137.2230 162° South 493 567 39,000  Level FlightAware ADS-B
Tue 06:13:03 PM 40.5670 137.2710 161° South 496 571 39,000  Level FlightAware ADS-B
Tue 06:13:43 PM 40.4810 137.3100 161° South 492 566 39,000  Level FlightAware ADS-B
Tue 06:14:18 PM 40.4110 137.3400 162° South 491 565 39,000  Level FlightAware ADS-B
Tue 06:14:58 PM 40.3180 137.3810 161° South 494 568 39,000  Level FlightAware ADS-B
Tue 06:16:32 PM 40.1180 137.4690 161° South 490 564 39,000  Level FlightAware ADS-B
Tue 06:17:10 PM 40.0350 137.5050 162° South 490 564 39,000  Level FlightAware ADS-B
Tue 06:17:56 PM 39.9320 137.5500 161° South 489 563 39,000  Level FlightAware ADS-B
Tue 06:18:36 PM 39.8460 137.5870 162° South 490 564 39,000  Level FlightAware ADS-B
Tue 06:19:20 PM 39.7490 137.6300 161° South 493 567 39,000  Level FlightAware ADS-B
Tue 06:20:01 PM 39.6580 137.6690 162° South 493 567 39,000  Level FlightAware ADS-B
Tue 06:20:45 PM 39.5600 137.7110 162° South 493 567 39,000  Level FlightAware ADS-B
Tue 06:21:26 PM 39.4720 137.7490 162° South 494 568 39,000  Level FlightAware ADS-B
Tue 06:22:06 PM 39.3840 137.7860 162° South 494 568 39,000  Level FlightAware ADS-B
Tue 06:22:50 PM 39.2860 137.8310 160° South 509 586 39,000  Level FlightAware ADS-B
Tue 06:23:31 PM 39.2000 137.8860 154° Southeast 520 598 39,000  Level FlightAware ADS-B
Tue 06:24:16 PM 39.1090 137.9620 147° Southeast 527 606 39,000  Level FlightAware ADS-B
Tue 06:24:57 PM 39.0300 138.0490 139° Southeast 544 626 39,000 -75 Level FlightAware ADS-B
Tue 06:25:36 PM 38.9560 138.1320 139° Southeast 536 617 38,900 -635 Descending FlightAware ADS-B
Tue 06:26:22 PM 38.8700 138.2300 138° Southeast 536 617 38,100 -628 Descending FlightAware ADS-B
Tue 06:27:02 PM 38.7970 138.3120 139° Southeast 523 602 38,000 -76 Descending FlightAware ADS-B
Tue 06:27:41 PM 38.7240 138.3950 138° Southeast 523 602 38,000  Level FlightAware ADS-B
Tue 06:28:26 PM 38.6410 138.4870 139° Southeast 529 609 38,000  Level FlightAware ADS-B
Tue 06:29:06 PM 38.5680 138.5690 139° Southeast 531 611 38,000  Level FlightAware ADS-B
Tue 06:29:46 PM 38.4940 138.6520 139° Southeast 534 615 38,000  Level FlightAware ADS-B
Tue 06:30:31 PM 38.4110 138.7450 139° Southeast 536 617 38,000  Level FlightAware ADS-B
Tue 06:31:11 PM 38.3390 138.8240 139° Southeast 537 618 38,000 -225 Level FlightAware ADS-B
Tue 06:31:51 PM 38.2650 138.9060 139° Southeast 541 623 37,700 -776 Descending FlightAware ADS-B
Tue 06:32:36 PM 38.1780 139.0020 139° Southeast 544 626 36,900 -1,535 Descending FlightAware ADS-B
Tue 06:33:17 PM 38.0980 139.0900 139° Southeast 546 628 35,500 -2,047 Descending FlightAware ADS-B
Tue 06:34:01 PM 38.0140 139.1810 140° Southeast 547 629 34,000 -2,500 Descending FlightAware ADS-B
Tue 06:34:41 PM 37.9350 139.2680 139° Southeast 558 642 32,000 -2,471 Descending FlightAware ADS-B
Tue 06:35:26 PM 37.8480 139.3620 140° Southeast 549 632 30,500 -1,906 Descending FlightAware ADS-B
Tue 06:36:06 PM 37.7700 139.4470 139° Southeast 541 623 29,300 -1,765 Descending FlightAware ADS-B
Tue 06:36:51 PM 37.6890 139.5400 138° Southeast 539 620 28,000 -1,624 Descending FlightAware ADS-B
Tue 06:37:31 PM 37.6250 139.6330 131° Southeast 533 613 27,000 -1,500 Descending FlightAware ADS-B
Tue 06:38:11 PM 37.5690 139.7200 129° Southeast 517 595 26,000 -1,212 Descending FlightAware ADS-B
Tue 06:39:10 PM 37.4860 139.8460 130° Southeast 498 573 25,000 -594 Descending FlightAware ADS-B
Tue 06:39:52 PM 37.3980 139.9260 144° Southeast 498 573 25,000  Level FlightAware ADS-B
Tue 06:40:48 PM 37.2850 140.0230 146° Southeast 491 565 25,000 -65 Level FlightAware ADS-B
Tue 06:41:25 PM 37.2310 140.0690 146° Southeast 500 575 24,900 -1,256 Descending FlightAware ADS-B
Tue 06:42:14 PM 37.1250 140.1600 146° Southeast 493 567 23,200 -1,761 Descending FlightAware ADS-B
Tue 06:42:57 PM 37.0450 140.2290 145° Southeast 467 537 22,200 -1,500 Descending FlightAware ADS-B
Tue 06:43:38 PM 36.9820 140.2830 146° Southeast 449 517 21,100 -1,714 Descending FlightAware ADS-B
Tue 06:44:14 PM 36.9150 140.3400 146° Southeast 435 501 20,000 -1,829 Descending FlightAware ADS-B
Tue 06:45:00 PM 36.8340 140.4080 146° Southeast 428 493 18,600 -1,446 Descending FlightAware ADS-B
Tue 06:45:37 PM 36.7820 140.4520 146° Southeast 411 473 18,000 -1,271 Descending FlightAware ADS-B
Tue 06:46:25 PM 36.7040 140.5180 146° Southeast 405 466 16,800 -1,364 Descending FlightAware ADS-B
Tue 06:47:05 PM 36.6430 140.5700 146° Southeast 395 455 16,000 -1,229 Descending FlightAware ADS-B
Tue 06:47:48 PM 36.5760 140.6170 151° Southeast 389 448 15,100 -795 Descending FlightAware ADS-B
Tue 06:48:28 PM 36.5030 140.6060 187° South 379 436 14,900 -767 Descending FlightAware ADS-B
Tue 06:49:14 PM 36.4220 140.5760 197° South 372 428 14,000 -1,326 Descending FlightAware ADS-B
Tue 06:49:54 PM 36.3560 140.5510 197° South 374 430 13,000 -1,500 Descending FlightAware ADS-B
Tue 06:50:34 PM 36.2880 140.5410 187° South 352 405 12,000 -1,129 Descending FlightAware ADS-B
Tue 06:51:19 PM 36.2170 140.5370 183° South 325 374 11,400 -1,000 Descending FlightAware ADS-B
Tue 06:52:04 PM 36.1560 140.5330 183° South 287 330 10,500 -1,457 Descending FlightAware ADS-B
Tue 06:52:29 PM 36.1240 140.5310 183° South 275 316 9,700 -2,043 Descending FlightAware ADS-B
Tue 06:52:51 PM 36.0950 140.5300 182° South 275 316 8,900 -1,674 Descending FlightAware ADS-B
Tue 06:53:12 PM 36.0680 140.5280 183° South 273 314 8,500 -1,959 Descending FlightAware ADS-B
Tue 06:53:40 PM 36.0350 140.5260 183° South 268 308 7,300 -1,714 Descending FlightAware ADS-B
Tue 06:54:08 PM 36.0030 140.5200 189° South 237 273 6,900 -900 Descending FlightAware ADS-B
Tue 06:54:20 PM 35.9930 140.5090 222° Southwest 230 265 6,700 -1,000 Descending FlightAware ADS-B
Tue 06:54:38 PM 35.9880 140.4850 256° West 232 267 6,400 -783 Descending FlightAware ADS-B
Tue 06:55:06 PM 35.9860 140.4520 266° West 225 259 6,100 -750 Descending FlightAware ADS-B
Tue 06:55:18 PM 35.9850 140.4350 266° West 217 250 5,900 -1,000 Descending FlightAware ADS-B
Tue 06:55:42 PM 35.9830 140.4070 265° West 207 238 5,500 -982 Descending FlightAware ADS-B
Tue 06:56:13 PM 35.9810 140.3700 266° West 198 228 5,000 -837 Descending FlightAware ADS-B
Tue 06:56:25 PM 35.9810 140.3590 270° West 192 221 4,900 -1,000 Descending FlightAware ADS-B
Tue 06:56:55 PM 35.9790 140.3250 266° West 184 212 4,300 -1,158 Descending FlightAware ADS-B
Tue 06:57:22 PM 35.9760 140.2990 262° West 179 206 3,800 -1,114 Descending FlightAware ADS-B
Tue 06:58:05 PM 35.9540 140.2670 230° Southwest 169 194 3,000 -794 Descending FlightAware ADS-B
Tue 06:58:30 PM 35.9350 140.2660 182° South 166 191 2,900  Descending FlightAware ADS-B
Tue 06:59:11 PM 35.9040 140.2740 168° South 169 194 3,000 -243 Climbing FlightAware ADS-B
Tue 06:59:44 PM 35.8830 140.2900 148° Southeast 168 193 2,600 -737 Descending FlightAware ADS-B
Tue 07:00:08 PM 35.8670 140.3010 151° Southeast 157 181 2,300 -750 Descending FlightAware ADS-B
Tue 07:00:24 PM 35.8570 140.3090 147° Southeast 147 169 2,100 -750 Descending FlightAware ADS-B
Tue 07:00:48 PM 35.8450 140.3170 152° Southeast 134 154 1,800 -405 Descending FlightAware ADS-B
Tue 07:01:38 PM 35.8220 140.3340 149° Southeast 131 151 1,600 -621 Descending FlightAware ADS-B
Tue 07:01:46 PM 35.8130 140.3400 152° Southeast 135 155 1,200 -706 Descending FlightAware ADS-B
Tue 07:02:12 PM 35.8010 140.3490 149° Southeast 135 155 1,200  Level FlightAware ADS-B
Tue 07:04:00 PM 35.7647 140.3864 140° Southeast  Level Estimated
Tue 07:05:00 PM 35.7647 140.3864 338° Northwest  Level Estimated
Tue 07:06:00 PM 35.7647 140.3864 338° Northwest  Level Estimated
Tue 07:07:00 PM 35.7647 140.3864 338° Northwest  Level Estimated
Tue 07:08:00 PM 35.7647 140.3864 338° Northwest  Level Estimated
Tue 07:09:00 PM 35.7647 140.3864 338° Northwest  Level Estimated
Tue 07:10:00 PM 35.7647 140.3864 338° Northwest  Level Estimated
Tue 07:11:00 PM 35.7647 140.3864 338° Northwest  Level Estimated
Tue 07:12:00 PM 35.7647 140.3864 338° Northwest  Level Estimated
Tue 07:13:00 PM 35.7647 140.3864 338° Northwest  Level Estimated
Tue 07:14:00 PM 35.7647 140.3864 338° Northwest  Level Estimated

Login

Don't have an account? Register now (free) for customized features, flight alerts, and more!